sensor_id;sensor_type;location;lat;lon;timestamp;temperature;humidity
16974;DHT22;8603;46.944;7.412;2023-09-12T00:00:04;18.00;99.90
16974;DHT22;8603;46.944;7.412;2023-09-12T00:02:30;18.00;99.90
16974;DHT22;8603;46.944;7.412;2023-09-12T00:04:56;18.00;99.90
16974;DHT22;8603;46.944;7.412;2023-09-12T00:07:22;18.00;99.90
16974;DHT22;8603;46.944;7.412;2023-09-12T03:35:37;16.40;99.90
16974;DHT22;8603;46.944;7.412;2023-09-12T03:56:39;16.30;99.90
16974;DHT22;8603;46.944;7.412;2023-09-12T03:59:33;16.30;99.90
16974;DHT22;8603;46.944;7.412;2023-09-12T04:22:20;16.50;99.90
16974;DHT22;8603;46.944;7.412;2023-09-12T04:24:46;16.50;99.90
16974;DHT22;8603;46.944;7.412;2023-09-12T04:27:25;16.50;99.90
16974;DHT22;8603;46.944;7.412;2023-09-12T04:29:59;16.60;99.90
16974;DHT22;8603;46.944;7.412;2023-09-12T04:32:36;16.60;99.90
16974;DHT22;8603;46.944;7.412;2023-09-12T04:35:10;16.60;99.90
16974;DHT22;8603;46.944;7.412;2023-09-12T04:38:03;16.60;99.90
16974;DHT22;8603;46.944;7.412;2023-09-12T04:40:33;16.50;99.90
16974;DHT22;8603;46.944;7.412;2023-09-12T04:43:31;16.50;99.90
16974;DHT22;8603;46.944;7.412;2023-09-12T04:46:35;16.50;99.90
16974;DHT22;8603;46.944;7.412;2023-09-12T04:49:03;16.50;99.90
16974;DHT22;8603;46.944;7.412;2023-09-12T04:51:44;16.40;99.90
16974;DHT22;8603;46.944;7.412;2023-09-12T04:57:40;16.40;99.90
16974;DHT22;8603;46.944;7.412;2023-09-12T05:00:29;16.40;99.90
16974;DHT22;8603;46.944;7.412;2023-09-12T05:03:09;16.40;99.90
16974;DHT22;8603;46.944;7.412;2023-09-12T05:05:38;16.40;99.90
16974;DHT22;8603;46.944;7.412;2023-09-12T05:08:15;16.40;99.90
16974;DHT22;8603;46.944;7.412;2023-09-12T05:14:25;16.40;99.90
16974;DHT22;8603;46.944;7.412;2023-09-12T05:20:39;16.40;99.90
16974;DHT22;8603;46.944;7.412;2023-09-12T05:26:31;16.60;99.90
16974;DHT22;8603;46.944;7.412;2023-09-12T05:29:03;16.60;99.90
16974;DHT22;8603;46.944;7.412;2023-09-12T05:31:39;16.60;99.90
16974;DHT22;8603;46.944;7.412;2023-09-12T05:34:05;16.60;99.90
16974;DHT22;8603;46.944;7.412;2023-09-12T05:36:36;16.60;99.90
16974;DHT22;8603;46.944;7.412;2023-09-12T05:39:02;16.70;99.90
16974;DHT22;8603;46.944;7.412;2023-09-12T05:41:44;16.70;99.90
16974;DHT22;8603;46.944;7.412;2023-09-12T05:44:33;16.80;99.90
16974;DHT22;8603;46.944;7.412;2023-09-12T05:47:07;16.90;99.90
16974;DHT22;8603;46.944;7.412;2023-09-12T05:49:33;17.00;99.90
16974;DHT22;8603;46.944;7.412;2023-09-12T05:52:09;17.10;99.90
16974;DHT22;8603;46.944;7.412;2023-09-12T05:55:11;17.30;99.90
16974;DHT22;8603;46.944;7.412;2023-09-12T05:58:20;17.50;99.90
16974;DHT22;8603;46.944;7.412;2023-09-12T06:05:01;17.80;99.90
16974;DHT22;8603;46.944;7.412;2023-09-12T06:13:41;18.40;99.90
16974;DHT22;8603;46.944;7.412;2023-09-12T06:16:30;18.70;99.90
16974;DHT22;8603;46.944;7.412;2023-09-12T06:19:32;19.20;99.90
16974;DHT22;8603;46.944;7.412;2023-09-12T06:22:05;19.40;99.90
16974;DHT22;8603;46.944;7.412;2023-09-12T06:24:31;19.40;99.90
16974;DHT22;8603;46.944;7.412;2023-09-12T06:33:55;19.40;99.90
16974;DHT22;8603;46.944;7.412;2023-09-12T06:36:59;19.40;99.90
16974;DHT22;8603;46.944;7.412;2023-09-12T06:40:03;19.40;99.90
16974;DHT22;8603;46.944;7.412;2023-09-12T06:42:41;19.40;99.90
16974;DHT22;8603;46.944;7.412;2023-09-12T06:45:09;19.40;99.90
16974;DHT22;8603;46.944;7.412;2023-09-12T06:48:06;19.40;99.90
16974;DHT22;8603;46.944;7.412;2023-09-12T06:50:34;19.40;99.90
16974;DHT22;8603;46.944;7.412;2023-09-12T06:53:00;19.50;99.90
16974;DHT22;8603;46.944;7.412;2023-09-12T06:55:31;19.90;99.90
16974;DHT22;8603;46.944;7.412;2023-09-12T06:58:15;21.00;99.90
16974;DHT22;8603;46.944;7.412;2023-09-12T07:00:46;22.60;99.90
16974;DHT22;8603;46.944;7.412;2023-09-12T07:29:12;31.90;99.90
16974;DHT22;8603;46.944;7.412;2023-09-12T07:32:08;31.10;99.90
16974;DHT22;8603;46.944;7.412;2023-09-12T07:41:36;27.90;99.90
16974;DHT22;8603;46.944;7.412;2023-09-12T07:47:48;27.60;99.90
16974;DHT22;8603;46.944;7.412;2023-09-12T07:53:36;28.40;99.90
16974;DHT22;8603;46.944;7.412;2023-09-12T07:56:02;28.20;99.90
16974;DHT22;8603;46.944;7.412;2023-09-12T07:58:28;27.90;99.90
16974;DHT22;8603;46.944;7.412;2023-09-12T08:00:56;27.90;99.90
16974;DHT22;8603;46.944;7.412;2023-09-12T08:03:24;27.80;99.90
16974;DHT22;8603;46.944;7.412;2023-09-12T08:05:57;27.70;99.90
16974;DHT22;8603;46.944;7.412;2023-09-12T08:08:26;27.50;99.90
16974;DHT22;8603;46.944;7.412;2023-09-12T08:10:51;27.40;99.90
16974;DHT22;8603;46.944;7.412;2023-09-12T08:13:25;27.30;99.90
16974;DHT22;8603;46.944;7.412;2023-09-12T08:15:51;27.30;99.90
16974;DHT22;8603;46.944;7.412;2023-09-12T08:18:17;27.40;99.90
16974;DHT22;8603;46.944;7.412;2023-09-12T08:20:45;27.20;99.90
16974;DHT22;8603;46.944;7.412;2023-09-12T08:23:11;27.00;99.90
16974;DHT22;8603;46.944;7.412;2023-09-12T08:25:37;26.80;99.90
16974;DHT22;8603;46.944;7.412;2023-09-12T08:28:06;27.10;99.90
16974;DHT22;8603;46.944;7.412;2023-09-12T08:30:41;28.00;99.90
16974;DHT22;8603;46.944;7.412;2023-09-12T08:33:08;28.80;99.90
16974;DHT22;8603;46.944;7.412;2023-09-12T08:35:34;29.40;99.90
16974;DHT22;8603;46.944;7.412;2023-09-12T08:38:00;29.80;99.90
16974;DHT22;8603;46.944;7.412;2023-09-12T08:40:25;30.10;99.90
16974;DHT22;8603;46.944;7.412;2023-09-12T08:42:52;30.50;99.90
16974;DHT22;8603;46.944;7.412;2023-09-12T08:45:19;30.80;99.90
16974;DHT22;8603;46.944;7.412;2023-09-12T08:47:53;30.90;99.90
16974;DHT22;8603;46.944;7.412;2023-09-12T08:50:19;31.10;99.90
16974;DHT22;8603;46.944;7.412;2023-09-12T08:52:49;31.20;99.90
16974;DHT22;8603;46.944;7.412;2023-09-12T08:55:14;31.40;99.90
16974;DHT22;8603;46.944;7.412;2023-09-12T08:57:44;31.60;99.90
16974;DHT22;8603;46.944;7.412;2023-09-12T09:00:13;31.60;99.90
16974;DHT22;8603;46.944;7.412;2023-09-12T09:02:45;31.60;99.90
16974;DHT22;8603;46.944;7.412;2023-09-12T09:05:12;31.60;99.90
16974;DHT22;8603;46.944;7.412;2023-09-12T09:07:39;31.40;99.90
16974;DHT22;8603;46.944;7.412;2023-09-12T09:10:07;31.20;99.90
16974;DHT22;8603;46.944;7.412;2023-09-12T09:12:34;30.80;99.90
16974;DHT22;8603;46.944;7.412;2023-09-12T09:15:31;30.50;99.90
16974;DHT22;8603;46.944;7.412;2023-09-12T09:17:58;30.40;99.90
16974;DHT22;8603;46.944;7.412;2023-09-12T09:20:28;30.40;99.90
16974;DHT22;8603;46.944;7.412;2023-09-12T09:23:02;30.50;99.90
16974;DHT22;8603;46.944;7.412;2023-09-12T09:25:31;30.50;99.90
16974;DHT22;8603;46.944;7.412;2023-09-12T09:27:57;30.70;99.90
16974;DHT22;8603;46.944;7.412;2023-09-12T09:30:40;30.90;99.90
16974;DHT22;8603;46.944;7.412;2023-09-12T09:33:06;31.20;99.90
16974;DHT22;8603;46.944;7.412;2023-09-12T09:35:31;31.20;99.90
16974;DHT22;8603;46.944;7.412;2023-09-12T09:37:57;31.10;99.90
16974;DHT22;8603;46.944;7.412;2023-09-12T09:40:34;30.80;99.90
16974;DHT22;8603;46.944;7.412;2023-09-12T09:43:06;30.70;99.90
16974;DHT22;8603;46.944;7.412;2023-09-12T09:45:32;30.70;99.90
16974;DHT22;8603;46.944;7.412;2023-09-12T09:48:04;30.70;99.90
16974;DHT22;8603;46.944;7.412;2023-09-12T09:50:29;30.70;99.90
16974;DHT22;8603;46.944;7.412;2023-09-12T09:52:55;30.70;99.90
16974;DHT22;8603;46.944;7.412;2023-09-12T09:55:23;30.60;99.90
16974;DHT22;8603;46.944;7.412;2023-09-12T09:57:49;30.50;99.90
16974;DHT22;8603;46.944;7.412;2023-09-12T10:00:37;30.40;99.90
16974;DHT22;8603;46.944;7.412;2023-09-12T10:03:06;30.60;99.90
16974;DHT22;8603;46.944;7.412;2023-09-12T10:05:33;30.70;99.90
16974;DHT22;8603;46.944;7.412;2023-09-12T10:08:03;30.60;99.90
16974;DHT22;8603;46.944;7.412;2023-09-12T10:10:32;30.50;99.90
16974;DHT22;8603;46.944;7.412;2023-09-12T10:13:03;30.30;99.90
16974;DHT22;8603;46.944;7.412;2023-09-12T10:15:30;30.20;99.90
16974;DHT22;8603;46.944;7.412;2023-09-12T10:18:18;30.10;99.90
16974;DHT22;8603;46.944;7.412;2023-09-12T10:20:54;29.90;99.90
16974;DHT22;8603;46.944;7.412;2023-09-12T10:23:30;29.90;99.90
16974;DHT22;8603;46.944;7.412;2023-09-12T10:25:59;29.90;99.90
16974;DHT22;8603;46.944;7.412;2023-09-12T10:28:26;29.90;99.60
16974;DHT22;8603;46.944;7.412;2023-09-12T10:30:52;29.90;99.90
16974;DHT22;8603;46.944;7.412;2023-09-12T10:33:19;29.90;99.90
16974;DHT22;8603;46.944;7.412;2023-09-12T10:35:45;30.10;99.30
16974;DHT22;8603;46.944;7.412;2023-09-12T10:38:12;30.20;99.90
16974;DHT22;8603;46.944;7.412;2023-09-12T10:40:40;30.30;99.80
16974;DHT22;8603;46.944;7.412;2023-09-12T10:43:06;30.30;98.50
16974;DHT22;8603;46.944;7.412;2023-09-12T10:45:35;30.30;97.40
16974;DHT22;8603;46.944;7.412;2023-09-12T10:48:03;30.20;98.30
16974;DHT22;8603;46.944;7.412;2023-09-12T10:50:29;30.30;97.90
16974;DHT22;8603;46.944;7.412;2023-09-12T10:53:11;30.30;98.60
16974;DHT22;8603;46.944;7.412;2023-09-12T10:55:37;30.40;97.30
16974;DHT22;8603;46.944;7.412;2023-09-12T10:58:03;30.40;97.40
16974;DHT22;8603;46.944;7.412;2023-09-12T11:00:29;30.30;97.00
16974;DHT22;8603;46.944;7.412;2023-09-12T11:02:58;30.10;97.00
16974;DHT22;8603;46.944;7.412;2023-09-12T11:07:57;29.90;98.40
16974;DHT22;8603;46.944;7.412;2023-09-12T11:10:23;29.90;98.30
16974;DHT22;8603;46.944;7.412;2023-09-12T11:12:54;29.90;98.30
16974;DHT22;8603;46.944;7.412;2023-09-12T11:15:21;29.90;98.30
16974;DHT22;8603;46.944;7.412;2023-09-12T11:17:48;29.90;98.10
16974;DHT22;8603;46.944;7.412;2023-09-12T11:20:15;30.10;98.00
16974;DHT22;8603;46.944;7.412;2023-09-12T11:22:42;30.20;98.70
16974;DHT22;8603;46.944;7.412;2023-09-12T11:25:22;30.30;98.00
16974;DHT22;8603;46.944;7.412;2023-09-12T11:30:24;30.70;97.30
16974;DHT22;8603;46.944;7.412;2023-09-12T11:32:51;30.70;97.00
16974;DHT22;8603;46.944;7.412;2023-09-12T11:35:27;30.60;97.30
16974;DHT22;8603;46.944;7.412;2023-09-12T11:37:59;30.50;97.20
16974;DHT22;8603;46.944;7.412;2023-09-12T11:43:03;30.10;97.20
16974;DHT22;8603;46.944;7.412;2023-09-12T11:45:31;30.00;97.50
16974;DHT22;8603;46.944;7.412;2023-09-12T11:47:58;30.00;98.10
16974;DHT22;8603;46.944;7.412;2023-09-12T11:50:33;30.20;98.00
16974;DHT22;8603;46.944;7.412;2023-09-12T11:53:04;30.30;97.80
16974;DHT22;8603;46.944;7.412;2023-09-12T11:55:49;30.50;98.20
16974;DHT22;8603;46.944;7.412;2023-09-12T11:58:17;30.40;98.70
16974;DHT22;8603;46.944;7.412;2023-09-12T12:00:50;30.30;98.70
16974;DHT22;8603;46.944;7.412;2023-09-12T12:03:17;30.10;98.80
16974;DHT22;8603;46.944;7.412;2023-09-12T12:05:43;30.00;99.40
16974;DHT22;8603;46.944;7.412;2023-09-12T12:08:10;29.90;99.70
16974;DHT22;8603;46.944;7.412;2023-09-12T12:10:36;29.90;99.50
16974;DHT22;8603;46.944;7.412;2023-09-12T12:13:04;30.10;99.60
16974;DHT22;8603;46.944;7.412;2023-09-12T12:15:30;30.30;99.30
16974;DHT22;8603;46.944;7.412;2023-09-12T12:17:58;30.50;99.00
16974;DHT22;8603;46.944;7.412;2023-09-12T12:20:24;30.50;98.80
16974;DHT22;8603;46.944;7.412;2023-09-12T12:22:50;30.30;99.70
16974;DHT22;8603;46.944;7.412;2023-09-12T12:25:18;30.10;99.50
16974;DHT22;8603;46.944;7.412;2023-09-12T12:27:44;30.00;99.20
16974;DHT22;8603;46.944;7.412;2023-09-12T12:30:12;29.70;99.10
16974;DHT22;8603;46.944;7.412;2023-09-12T12:32:45;29.50;98.70
16974;DHT22;8603;46.944;7.412;2023-09-12T12:35:20;29.40;98.50
16974;DHT22;8603;46.944;7.412;2023-09-12T12:37:54;29.50;98.80
16974;DHT22;8603;46.944;7.412;2023-09-12T12:40:20;29.60;98.20
16974;DHT22;8603;46.944;7.412;2023-09-12T12:42:46;29.60;98.00
16974;DHT22;8603;46.944;7.412;2023-09-12T12:45:20;29.70;97.90
16974;DHT22;8603;46.944;7.412;2023-09-12T12:47:58;29.70;98.60
16974;DHT22;8603;46.944;7.412;2023-09-12T12:50:24;29.60;98.50
16974;DHT22;8603;46.944;7.412;2023-09-12T12:52:49;29.60;98.50
16974;DHT22;8603;46.944;7.412;2023-09-12T12:55:16;29.60;98.00
16974;DHT22;8603;46.944;7.412;2023-09-12T12:57:43;29.70;98.00
16974;DHT22;8603;46.944;7.412;2023-09-12T13:00:19;29.80;97.90
16974;DHT22;8603;46.944;7.412;2023-09-12T13:02:46;29.80;98.50
16974;DHT22;8603;46.944;7.412;2023-09-12T13:05:21;29.80;98.30
16974;DHT22;8603;46.944;7.412;2023-09-12T13:07:46;29.70;98.50
16974;DHT22;8603;46.944;7.412;2023-09-12T13:10:12;29.80;98.40
16974;DHT22;8603;46.944;7.412;2023-09-12T13:12:38;30.00;98.90
16974;DHT22;8603;46.944;7.412;2023-09-12T13:15:07;30.20;98.40
16974;DHT22;8603;46.944;7.412;2023-09-12T13:17:36;30.30;98.60
16974;DHT22;8603;46.944;7.412;2023-09-12T13:20:01;30.20;97.00
16974;DHT22;8603;46.944;7.412;2023-09-12T13:22:28;30.00;97.10
16974;DHT22;8603;46.944;7.412;2023-09-12T13:24:53;30.10;96.70
16974;DHT22;8603;46.944;7.412;2023-09-12T13:27:19;30.20;95.70
16974;DHT22;8603;46.944;7.412;2023-09-12T13:29:47;30.20;94.80
16974;DHT22;8603;46.944;7.412;2023-09-12T13:32:13;30.20;94.20
16974;DHT22;8603;46.944;7.412;2023-09-12T13:34:40;30.20;93.80
16974;DHT22;8603;46.944;7.412;2023-09-12T13:37:06;30.10;93.70
16974;DHT22;8603;46.944;7.412;2023-09-12T13:39:31;30.20;93.50
16974;DHT22;8603;46.944;7.412;2023-09-12T13:41:57;30.20;93.50
16974;DHT22;8603;46.944;7.412;2023-09-12T13:44:25;30.10;92.20
16974;DHT22;8603;46.944;7.412;2023-09-12T13:46:50;30.00;91.60
16974;DHT22;8603;46.944;7.412;2023-09-12T13:49:16;30.00;90.80
16974;DHT22;8603;46.944;7.412;2023-09-12T13:51:42;30.00;90.80
16974;DHT22;8603;46.944;7.412;2023-09-12T13:54:07;30.10;91.00
16974;DHT22;8603;46.944;7.412;2023-09-12T13:56:44;30.20;90.60
16974;DHT22;8603;46.944;7.412;2023-09-12T13:59:12;30.20;90.10
16974;DHT22;8603;46.944;7.412;2023-09-12T14:01:38;30.20;90.00
16974;DHT22;8603;46.944;7.412;2023-09-12T14:04:16;30.10;89.60
16974;DHT22;8603;46.944;7.412;2023-09-12T14:06:49;30.20;89.70
16974;DHT22;8603;46.944;7.412;2023-09-12T14:09:20;30.50;88.80
16974;DHT22;8603;46.944;7.412;2023-09-12T14:11:50;30.60;89.60
16974;DHT22;8603;46.944;7.412;2023-09-12T14:14:21;30.80;88.50
16974;DHT22;8603;46.944;7.412;2023-09-12T14:16:47;31.10;87.70
16974;DHT22;8603;46.944;7.412;2023-09-12T14:19:18;31.20;88.10
16974;DHT22;8603;46.944;7.412;2023-09-12T14:21:57;31.20;88.00
16974;DHT22;8603;46.944;7.412;2023-09-12T14:27:54;31.30;88.20
16974;DHT22;8603;46.944;7.412;2023-09-12T14:34:02;31.20;86.40
16974;DHT22;8603;46.944;7.412;2023-09-12T14:39:16;31.20;86.50
16974;DHT22;8603;46.944;7.412;2023-09-12T14:41:50;31.10;85.70
16974;DHT22;8603;46.944;7.412;2023-09-12T14:44:50;31.00;85.00
16974;DHT22;8603;46.944;7.412;2023-09-12T14:47:20;30.90;85.40
16974;DHT22;8603;46.944;7.412;2023-09-12T14:49:46;30.80;85.80
16974;DHT22;8603;46.944;7.412;2023-09-12T14:52:12;30.70;86.00
16974;DHT22;8603;46.944;7.412;2023-09-12T14:54:46;30.50;85.60
16974;DHT22;8603;46.944;7.412;2023-09-12T14:57:15;30.30;86.20
16974;DHT22;8603;46.944;7.412;2023-09-12T15:00:07;30.40;86.80
16974;DHT22;8603;46.944;7.412;2023-09-12T15:06:08;30.30;88.40
16974;DHT22;8603;46.944;7.412;2023-09-12T15:08:35;30.30;87.50
16974;DHT22;8603;46.944;7.412;2023-09-12T15:11:02;30.30;87.30
16974;DHT22;8603;46.944;7.412;2023-09-12T15:13:49;30.30;87.40
16974;DHT22;8603;46.944;7.412;2023-09-12T15:16:25;30.30;85.30
16974;DHT22;8603;46.944;7.412;2023-09-12T15:21:47;30.10;84.80
16974;DHT22;8603;46.944;7.412;2023-09-12T15:24:19;30.00;83.90
16974;DHT22;8603;46.944;7.412;2023-09-12T15:26:45;30.00;83.50
16974;DHT22;8603;46.944;7.412;2023-09-12T15:29:30;29.90;83.50
16974;DHT22;8603;46.944;7.412;2023-09-12T15:32:26;29.90;83.50
16974;DHT22;8603;46.944;7.412;2023-09-12T15:35:02;30.00;84.00
16974;DHT22;8603;46.944;7.412;2023-09-12T15:37:54;30.00;84.90
16974;DHT22;8603;46.944;7.412;2023-09-12T15:40:25;30.10;85.00
16974;DHT22;8603;46.944;7.412;2023-09-12T15:42:50;30.00;84.90
16974;DHT22;8603;46.944;7.412;2023-09-12T15:45:54;30.00;85.00
16974;DHT22;8603;46.944;7.412;2023-09-12T15:48:23;30.00;84.30
16974;DHT22;8603;46.944;7.412;2023-09-12T15:50:52;29.90;84.50
16974;DHT22;8603;46.944;7.412;2023-09-12T15:53:18;29.90;83.60
16974;DHT22;8603;46.944;7.412;2023-09-12T15:55:43;29.90;82.30
16974;DHT22;8603;46.944;7.412;2023-09-12T15:58:14;29.90;83.00
16974;DHT22;8603;46.944;7.412;2023-09-12T16:00:47;29.90;83.30
16974;DHT22;8603;46.944;7.412;2023-09-12T16:03:16;29.90;83.30
16974;DHT22;8603;46.944;7.412;2023-09-12T16:05:45;29.80;82.90
16974;DHT22;8603;46.944;7.412;2023-09-12T16:08:16;29.80;82.70
16974;DHT22;8603;46.944;7.412;2023-09-12T16:10:45;29.60;82.40
16974;DHT22;8603;46.944;7.412;2023-09-12T16:13:11;29.40;83.10
16974;DHT22;8603;46.944;7.412;2023-09-12T16:15:46;29.30;84.00
16974;DHT22;8603;46.944;7.412;2023-09-12T16:18:15;29.20;84.30
16974;DHT22;8603;46.944;7.412;2023-09-12T16:20:43;29.10;85.30
16974;DHT22;8603;46.944;7.412;2023-09-12T16:23:20;28.90;84.60
16974;DHT22;8603;46.944;7.412;2023-09-12T16:28:37;28.70;84.70
16974;DHT22;8603;46.944;7.412;2023-09-12T16:31:03;28.60;84.80
16974;DHT22;8603;46.944;7.412;2023-09-12T16:33:31;28.60;84.60
16974;DHT22;8603;46.944;7.412;2023-09-12T16:36:01;28.60;84.10
16974;DHT22;8603;46.944;7.412;2023-09-12T16:41:57;28.60;84.20
16974;DHT22;8603;46.944;7.412;2023-09-12T16:44:32;28.60;84.70
16974;DHT22;8603;46.944;7.412;2023-09-12T16:47:03;28.50;84.70
16974;DHT22;8603;46.944;7.412;2023-09-12T16:49:36;28.50;85.00
16974;DHT22;8603;46.944;7.412;2023-09-12T16:52:14;28.40;85.10
16974;DHT22;8603;46.944;7.412;2023-09-12T16:54:55;28.40;85.40
16974;DHT22;8603;46.944;7.412;2023-09-12T16:57:23;28.30;85.90
16974;DHT22;8603;46.944;7.412;2023-09-12T17:00:08;28.20;86.80
16974;DHT22;8603;46.944;7.412;2023-09-12T17:02:37;28.00;87.50
16974;DHT22;8603;46.944;7.412;2023-09-12T17:05:04;27.90;87.20
16974;DHT22;8603;46.944;7.412;2023-09-12T17:07:50;27.80;88.30
16974;DHT22;8603;46.944;7.412;2023-09-12T17:10:18;27.60;88.90
16974;DHT22;8603;46.944;7.412;2023-09-12T17:12:48;27.50;88.20
16974;DHT22;8603;46.944;7.412;2023-09-12T17:18:21;27.30;90.00
16974;DHT22;8603;46.944;7.412;2023-09-12T17:21:07;27.10;90.40
16974;DHT22;8603;46.944;7.412;2023-09-12T17:23:32;27.00;90.20
16974;DHT22;8603;46.944;7.412;2023-09-12T17:36:08;26.60;91.10
16974;DHT22;8603;46.944;7.412;2023-09-12T17:38:36;26.50;91.50
16974;DHT22;8603;46.944;7.412;2023-09-12T17:41:09;26.40;91.90
16974;DHT22;8603;46.944;7.412;2023-09-12T17:43:47;26.30;92.70
16974;DHT22;8603;46.944;7.412;2023-09-12T17:46:32;26.20;93.40
16974;DHT22;8603;46.944;7.412;2023-09-12T17:56:07;25.60;98.00
16974;DHT22;8603;46.944;7.412;2023-09-12T17:59:42;25.20;99.90
16974;DHT22;8603;46.944;7.412;2023-09-12T18:01:48;24.90;99.90
16974;DHT22;8603;46.944;7.412;2023-09-12T18:04:57;24.60;99.90
16974;DHT22;8603;46.944;7.412;2023-09-12T18:21:31;23.30;99.90
16974;DHT22;8603;46.944;7.412;2023-09-12T18:30:26;22.80;99.90
16974;DHT22;8603;46.944;7.412;2023-09-12T18:32:55;22.70;99.90
16974;DHT22;8603;46.944;7.412;2023-09-12T18:35:41;22.50;99.90
16974;DHT22;8603;46.944;7.412;2023-09-12T18:38:37;22.30;99.90
16974;DHT22;8603;46.944;7.412;2023-09-12T18:41:29;22.10;99.90
16974;DHT22;8603;46.944;7.412;2023-09-12T18:47:30;22.00;99.90
16974;DHT22;8603;46.944;7.412;2023-09-12T18:50:08;22.00;99.90
16974;DHT22;8603;46.944;7.412;2023-09-12T18:53:27;21.90;99.90
16974;DHT22;8603;46.944;7.412;2023-09-12T19:06:03;21.90;99.90
16974;DHT22;8603;46.944;7.412;2023-09-12T19:08:57;21.90;99.90
16974;DHT22;8603;46.944;7.412;2023-09-12T19:18:42;21.80;99.90
16974;DHT22;8603;46.944;7.412;2023-09-12T19:21:08;21.90;99.90
16974;DHT22;8603;46.944;7.412;2023-09-12T19:23:46;21.80;99.90
16974;DHT22;8603;46.944;7.412;2023-09-12T19:26:11;21.80;99.90
16974;DHT22;8603;46.944;7.412;2023-09-12T19:28:41;21.80;99.90
16974;DHT22;8603;46.944;7.412;2023-09-12T19:31:09;21.80;99.90
16974;DHT22;8603;46.944;7.412;2023-09-12T19:33:35;21.80;99.90
16974;DHT22;8603;46.944;7.412;2023-09-12T19:36:00;21.80;99.90
16974;DHT22;8603;46.944;7.412;2023-09-12T19:38:26;21.80;99.90
16974;DHT22;8603;46.944;7.412;2023-09-12T19:40:59;21.80;99.90
16974;DHT22;8603;46.944;7.412;2023-09-12T19:43:27;21.80;99.90
16974;DHT22;8603;46.944;7.412;2023-09-12T19:45:56;21.80;99.90
16974;DHT22;8603;46.944;7.412;2023-09-12T19:48:32;21.80;99.90
16974;DHT22;8603;46.944;7.412;2023-09-12T19:51:12;21.90;99.90
16974;DHT22;8603;46.944;7.412;2023-09-12T19:53:43;22.00;99.90
16974;DHT22;8603;46.944;7.412;2023-09-12T19:56:32;22.00;99.90
16974;DHT22;8603;46.944;7.412;2023-09-12T19:59:00;22.00;99.90
16974;DHT22;8603;46.944;7.412;2023-09-12T20:01:28;22.00;99.90
16974;DHT22;8603;46.944;7.412;2023-09-12T20:03:54;21.90;99.90
16974;DHT22;8603;46.944;7.412;2023-09-12T20:06:20;21.90;99.90
16974;DHT22;8603;46.944;7.412;2023-09-12T20:08:49;22.00;99.90
16974;DHT22;8603;46.944;7.412;2023-09-12T20:11:14;22.00;99.90
16974;DHT22;8603;46.944;7.412;2023-09-12T20:13:50;22.00;99.90
16974;DHT22;8603;46.944;7.412;2023-09-12T20:16:18;22.00;99.90
16974;DHT22;8603;46.944;7.412;2023-09-12T20:18:46;22.00;99.90
16974;DHT22;8603;46.944;7.412;2023-09-12T20:21:12;22.00;99.90
16974;DHT22;8603;46.944;7.412;2023-09-12T20:23:38;21.80;99.90
16974;DHT22;8603;46.944;7.412;2023-09-12T20:26:06;21.60;99.90
16974;DHT22;8603;46.944;7.412;2023-09-12T20:28:37;21.40;99.90
16974;DHT22;8603;46.944;7.412;2023-09-12T20:31:04;21.20;99.90
16974;DHT22;8603;46.944;7.412;2023-09-12T20:33:30;21.00;99.90
16974;DHT22;8603;46.944;7.412;2023-09-12T20:36:25;20.90;99.90
16974;DHT22;8603;46.944;7.412;2023-09-12T20:41:35;20.70;99.90
16974;DHT22;8603;46.944;7.412;2023-09-12T20:47:02;20.70;99.90
16974;DHT22;8603;46.944;7.412;2023-09-12T20:49:49;20.60;99.90
16974;DHT22;8603;46.944;7.412;2023-09-12T20:52:27;20.60;99.90
16974;DHT22;8603;46.944;7.412;2023-09-12T20:55:17;20.50;99.90
16974;DHT22;8603;46.944;7.412;2023-09-12T21:03:51;20.50;99.90
16974;DHT22;8603;46.944;7.412;2023-09-12T21:06:27;20.40;99.90
16974;DHT22;8603;46.944;7.412;2023-09-12T21:09:13;20.40;99.90
16974;DHT22;8603;46.944;7.412;2023-09-12T21:11:43;20.30;99.90
16974;DHT22;8603;46.944;7.412;2023-09-12T21:14:32;20.30;99.90
16974;DHT22;8603;46.944;7.412;2023-09-12T21:17:02;20.20;99.90
16974;DHT22;8603;46.944;7.412;2023-09-12T21:19:54;20.20;99.90
16974;DHT22;8603;46.944;7.412;2023-09-12T21:22:40;20.20;99.90
16974;DHT22;8603;46.944;7.412;2023-09-12T21:25:26;20.10;99.90
16974;DHT22;8603;46.944;7.412;2023-09-12T21:27:52;20.10;99.90
16974;DHT22;8603;46.944;7.412;2023-09-12T21:30:47;20.10;99.90
16974;DHT22;8603;46.944;7.412;2023-09-12T21:34:18;20.10;99.90
16974;DHT22;8603;46.944;7.412;2023-09-12T21:37:03;20.10;99.90
16974;DHT22;8603;46.944;7.412;2023-09-12T21:39:28;20.10;99.90
16974;DHT22;8603;46.944;7.412;2023-09-12T21:41:55;20.10;99.90
16974;DHT22;8603;46.944;7.412;2023-09-12T21:44:21;20.10;99.90
16974;DHT22;8603;46.944;7.412;2023-09-12T21:46:47;20.10;99.90
16974;DHT22;8603;46.944;7.412;2023-09-12T21:49:13;20.10;99.90
16974;DHT22;8603;46.944;7.412;2023-09-12T21:51:39;20.10;99.90
16974;DHT22;8603;46.944;7.412;2023-09-12T21:54:05;20.10;99.90
16974;DHT22;8603;46.944;7.412;2023-09-12T21:56:30;20.10;99.90
16974;DHT22;8603;46.944;7.412;2023-09-12T21:58:56;20.20;99.90
16974;DHT22;8603;46.944;7.412;2023-09-12T22:01:22;20.20;99.90
16974;DHT22;8603;46.944;7.412;2023-09-12T22:03:48;20.20;99.90
16974;DHT22;8603;46.944;7.412;2023-09-12T22:06:14;20.10;99.90
16974;DHT22;8603;46.944;7.412;2023-09-12T22:08:40;20.10;99.90
16974;DHT22;8603;46.944;7.412;2023-09-12T22:11:06;20.10;99.90
16974;DHT22;8603;46.944;7.412;2023-09-12T22:13:32;20.10;99.90
16974;DHT22;8603;46.944;7.412;2023-09-12T22:15:57;20.10;99.90
16974;DHT22;8603;46.944;7.412;2023-09-12T22:18:26;20.10;99.90
16974;DHT22;8603;46.944;7.412;2023-09-12T22:20:51;20.10;99.90
16974;DHT22;8603;46.944;7.412;2023-09-12T22:23:17;20.00;99.90
16974;DHT22;8603;46.944;7.412;2023-09-12T22:25:43;20.10;99.90
16974;DHT22;8603;46.944;7.412;2023-09-12T22:28:09;20.00;99.90
16974;DHT22;8603;46.944;7.412;2023-09-12T22:30:37;20.00;99.90
16974;DHT22;8603;46.944;7.412;2023-09-12T22:33:03;19.90;99.90
16974;DHT22;8603;46.944;7.412;2023-09-12T22:35:31;19.90;99.90
16974;DHT22;8603;46.944;7.412;2023-09-12T22:37:56;19.90;99.90
16974;DHT22;8603;46.944;7.412;2023-09-12T22:40:22;19.90;99.90
16974;DHT22;8603;46.944;7.412;2023-09-12T22:42:47;19.90;99.90
16974;DHT22;8603;46.944;7.412;2023-09-12T22:45:13;19.90;99.90
16974;DHT22;8603;46.944;7.412;2023-09-12T22:47:39;19.80;99.90
16974;DHT22;8603;46.944;7.412;2023-09-12T22:50:06;19.80;99.90
16974;DHT22;8603;46.944;7.412;2023-09-12T22:52:32;19.70;99.90
16974;DHT22;8603;46.944;7.412;2023-09-12T22:54:58;19.70;99.90
16974;DHT22;8603;46.944;7.412;2023-09-12T22:57:24;19.60;99.90
16974;DHT22;8603;46.944;7.412;2023-09-12T22:59:52;19.50;99.90
16974;DHT22;8603;46.944;7.412;2023-09-12T23:02:18;19.50;99.90
16974;DHT22;8603;46.944;7.412;2023-09-12T23:04:46;19.40;99.90
16974;DHT22;8603;46.944;7.412;2023-09-12T23:07:12;19.40;99.90
16974;DHT22;8603;46.944;7.412;2023-09-12T23:09:45;19.30;99.90
16974;DHT22;8603;46.944;7.412;2023-09-12T23:12:11;19.20;99.90
16974;DHT22;8603;46.944;7.412;2023-09-12T23:14:36;19.20;99.90